createdAt,value
2023-03-24T00:01:54.734Z,12.82
2023-03-24T00:06:58.098Z,12.57
2023-03-24T00:12:00.786Z,12.82
2023-03-24T00:17:03.564Z,13.10
2023-03-24T00:22:08.325Z,12.20
2023-03-24T00:27:13.838Z,13.55
2023-03-24T00:32:17.711Z,13.15
2023-03-24T00:37:20.476Z,13.25
2023-03-24T00:42:24.801Z,13.85
2023-03-24T00:47:27.434Z,12.45
2023-03-24T00:52:34.214Z,13.25
2023-03-24T00:57:37.212Z,13.63
2023-03-24T01:02:40.427Z,13.43
2023-03-24T01:07:43.501Z,14.32
2023-03-24T01:12:46.239Z,12.80
2023-03-24T01:17:49.439Z,12.90
2023-03-24T01:22:52.612Z,13.73
2023-03-24T01:27:55.413Z,13.40
2023-03-24T01:32:58.281Z,13.52
2023-03-24T01:38:01.193Z,12.95
2023-03-24T01:43:05.108Z,13.85
2023-03-24T01:48:27.183Z,13.50
2023-03-24T01:53:34.263Z,13.20
2023-03-24T01:58:41.262Z,13.60
2023-03-24T02:03:53.070Z,13.48
2023-03-24T02:09:01.593Z,13.82
2023-03-24T02:14:07.282Z,12.63
2023-03-24T02:19:48.162Z,13.63
2023-03-24T02:25:37.102Z,14.40
2023-03-24T02:30:49.539Z,13.98
2023-03-24T02:36:32.358Z,13.23
2023-03-24T02:41:55.388Z,13.15
2023-03-24T02:57:47.365Z,13.60
2023-03-24T03:03:34.820Z,14.80
2023-03-24T03:08:39.138Z,14.07
2023-03-24T03:14:03.047Z,13.07
2023-03-24T03:19:12.820Z,13.48
2023-03-24T03:24:27.019Z,13.77
2023-03-24T03:29:37.076Z,13.30
2023-03-24T03:34:48.676Z,14.68
2023-03-24T03:40:09.962Z,15.10
2023-03-24T03:45:16.286Z,15.63
2023-03-24T03:50:19.356Z,16.17
2023-03-24T03:55:22.513Z,15.60
2023-03-24T04:00:26.298Z,16.58
2023-03-24T04:06:02.054Z,16.20
2023-03-24T04:11:39.211Z,17.40
2023-03-24T04:17:43.885Z,16.42
2023-03-24T04:23:14.718Z,18.65
2023-03-24T04:28:33.258Z,21.67
2023-03-24T04:33:41.833Z,19.40
2023-03-24T04:38:53.418Z,19.98
2023-03-24T04:44:11.229Z,21.00
2023-03-24T04:49:27.432Z,19.98
2023-03-24T04:54:30.224Z,19.92
2023-03-24T04:59:40.735Z,25.13
2023-03-24T05:04:44.140Z,19.65
2023-03-24T05:10:12.865Z,22.23
2023-03-24T05:15:23.742Z,20.38
2023-03-24T05:20:32.500Z,25.77
2023-03-24T05:25:47.156Z,22.30
2023-03-24T05:30:51.712Z,20.90
2023-03-24T05:36:13.068Z,22.85
2023-03-24T05:41:17.485Z,22.95
2023-03-24T05:46:20.634Z,22.25
2023-03-24T05:51:24.952Z,24.15
2023-03-24T05:56:36.968Z,21.80
2023-03-24T06:01:53.819Z,21.42
2023-03-24T06:07:03.158Z,19.40
2023-03-24T06:12:09.999Z,21.42
2023-03-24T06:17:16.404Z,34.78
2023-03-24T06:22:21.735Z,20.08
2023-03-24T06:27:26.340Z,18.60
2023-03-24T06:32:29.963Z,18.02
2023-03-24T06:37:33.368Z,17.85
2023-03-24T06:42:37.937Z,16.23
2023-03-24T06:47:41.162Z,15.93
2023-03-24T06:52:44.063Z,15.10
2023-03-24T06:57:48.978Z,14.10
2023-03-24T07:03:04.009Z,13.35
2023-03-24T07:08:34.098Z,13.98
2023-03-24T07:13:34.539Z,12.43
2023-03-24T07:18:40.284Z,12.57
2023-03-24T07:23:43.406Z,12.93
2023-03-24T07:28:51.718Z,13.00
2023-03-24T07:34:06.597Z,12.00
2023-03-24T07:39:13.303Z,11.88
2023-03-24T07:44:16.305Z,10.80
2023-03-24T07:49:26.374Z,11.13
2023-03-24T07:54:40.905Z,12.98
2023-03-24T07:59:44.514Z,10.38
2023-03-24T08:04:54.198Z,9.82
2023-03-24T08:10:24.183Z,9.57
2023-03-24T08:15:28.420Z,8.93
2023-03-24T08:20:31.108Z,9.48
2023-03-24T08:25:36.422Z,7.78
2023-03-24T08:30:43.704Z,7.25
2023-03-24T08:35:47.189Z,7.22
2023-03-24T08:40:50.294Z,7.20
2023-03-24T08:45:53.074Z,6.20
2023-03-24T08:50:56.799Z,6.28
2023-03-24T08:55:59.522Z,6.00
2023-03-24T09:01:02.391Z,5.22
2023-03-24T09:06:05.270Z,5.25
2023-03-24T09:11:13.982Z,5.68
2023-03-24T09:16:23.504Z,5.25
2023-03-24T09:21:26.515Z,4.53
2023-03-24T09:26:29.164Z,4.10
2023-03-24T09:31:31.874Z,4.72
2023-03-24T09:36:34.463Z,4.35
2023-03-24T09:41:37.231Z,4.15
2023-03-24T09:46:54.736Z,4.25
2023-03-24T09:52:05.832Z,4.10
2023-03-24T09:57:27.523Z,4.57
2023-03-24T10:02:31.786Z,4.40
2023-03-24T10:07:43.311Z,4.15
2023-03-24T10:12:49.720Z,4.97
2023-03-24T10:18:19.894Z,3.97
2023-03-24T10:23:37.387Z,4.13
2023-03-24T10:29:01.951Z,3.95
2023-03-24T10:34:06.312Z,4.10
2023-03-24T10:39:20.055Z,3.88
2023-03-24T10:44:27.120Z,3.60
2023-03-24T10:49:31.397Z,6.00
2023-03-24T10:54:34.085Z,3.17
2023-03-24T10:59:45.997Z,3.03
2023-03-24T11:10:08.341Z,3.05
2023-03-24T11:15:24.545Z,3.30
2023-03-24T11:20:32.349Z,2.95
2023-03-24T11:25:39.081Z,2.97
2023-03-24T11:31:12.024Z,3.03
2023-03-24T11:36:40.278Z,3.22
2023-03-24T11:42:07.579Z,3.80
2023-03-24T11:47:38.628Z,3.25
2023-03-24T11:52:50.800Z,3.25
2023-03-24T11:58:06.708Z,3.40
2023-03-24T12:03:28.178Z,3.50
2023-03-24T12:09:07.447Z,3.60
2023-03-24T12:14:12.382Z,2.92
2023-03-24T12:19:48.524Z,3.15
2023-03-24T12:25:04.388Z,2.88
2023-03-24T12:30:26.064Z,2.45
2023-03-24T12:35:43.338Z,2.42
2023-03-24T12:41:12.962Z,2.78
2023-03-24T12:46:34.152Z,2.80
2023-03-24T12:52:05.338Z,2.50
2023-03-24T12:57:14.663Z,3.00
2023-03-24T13:02:32.667Z,2.38
2023-03-24T13:07:39.359Z,2.70
2023-03-24T13:13:02.726Z,2.53
2023-03-24T13:18:38.723Z,2.47
2023-03-24T13:24:12.953Z,2.50
2023-03-24T13:29:48.410Z,2.20
2023-03-24T13:35:29.014Z,2.65
2023-03-24T13:40:35.111Z,2.17
2023-03-24T13:45:37.720Z,1.83
2023-03-24T13:50:53.485Z,2.20
2023-03-24T13:55:56.265Z,1.88
2023-03-24T14:01:11.336Z,1.80
2023-03-24T14:06:18.554Z,1.85
2023-03-24T14:11:41.532Z,1.50
2023-03-24T14:17:08.763Z,1.48
2023-03-24T14:22:34.605Z,1.60
2023-03-24T14:27:44.057Z,1.50
2023-03-24T14:32:49.995Z,1.80
2023-03-24T14:38:00.106Z,1.90
2023-03-24T14:43:13.689Z,1.63
2023-03-24T14:48:52.849Z,1.58
2023-03-24T14:53:59.540Z,1.40
2023-03-24T14:59:11.068Z,1.60
2023-03-24T15:04:13.972Z,1.52
2023-03-24T15:09:18.335Z,1.55
2023-03-24T15:14:25.280Z,1.42
2023-03-24T15:19:31.083Z,1.50
2023-03-24T15:24:38.433Z,1.40
2023-03-24T15:29:43.421Z,1.25
2023-03-24T15:34:53.402Z,1.52
2023-03-24T15:40:05.216Z,1.60
2023-03-24T15:50:40.773Z,2.20
2023-03-24T16:00:46.437Z,1.77
2023-03-24T16:05:51.724Z,1.55
2023-03-24T16:11:07.896Z,1.70
2023-03-24T16:16:13.575Z,1.50
2023-03-24T16:21:22.691Z,1.60
2023-03-24T16:26:32.957Z,1.40
2023-03-24T16:31:35.760Z,1.52
2023-03-24T16:36:38.474Z,2.20
2023-03-24T16:41:41.059Z,1.40
2023-03-24T16:46:46.555Z,1.20
2023-03-24T16:51:50.576Z,1.00
2023-03-24T16:56:53.236Z,1.25
2023-03-24T17:02:05.737Z,1.35
2023-03-24T17:07:08.683Z,2.08
2023-03-24T17:12:11.320Z,1.70
2023-03-24T17:17:13.896Z,1.98
2023-03-24T17:22:19.691Z,1.40
2023-03-24T17:27:22.267Z,1.45
2023-03-24T17:32:31.920Z,1.63
2023-03-24T17:37:34.552Z,1.90
2023-03-24T17:42:38.934Z,2.00
2023-03-24T17:47:41.908Z,2.35
2023-03-24T17:52:47.913Z,3.92
2023-03-24T17:57:50.538Z,3.63
2023-03-24T18:02:53.309Z,2.95
2023-03-24T18:07:56.195Z,2.83
2023-03-24T18:12:58.800Z,3.20
2023-03-24T18:18:01.673Z,2.65
2023-03-24T18:23:04.554Z,4.05
2023-03-24T18:28:07.565Z,6.57
2023-03-24T18:33:10.863Z,5.45
2023-03-24T18:38:15.288Z,5.47
2023-03-24T18:43:17.927Z,5.03
2023-03-24T18:48:20.702Z,4.78
2023-03-24T18:53:23.623Z,4.40
2023-03-24T18:58:26.247Z,4.65
2023-03-24T19:03:29.705Z,4.32
2023-03-24T19:08:35.058Z,4.45
2023-03-24T19:13:38.057Z,4.68
2023-03-24T19:18:41.301Z,5.20
2023-03-24T19:23:44.842Z,5.00
2023-03-24T19:28:47.552Z,4.63
2023-03-24T19:33:52.336Z,5.85
2023-03-24T19:38:54.999Z,5.57
2023-03-24T19:43:57.851Z,5.55
2023-03-24T19:49:00.710Z,10.27
2023-03-24T19:54:03.377Z,34.03
2023-03-24T19:59:06.053Z,8.35
2023-03-24T20:04:09.382Z,6.90
2023-03-24T20:09:13.211Z,6.10
2023-03-24T20:14:17.084Z,5.80
2023-03-24T20:19:20.153Z,6.15
2023-03-24T20:24:23.091Z,5.47
2023-03-24T20:29:26.322Z,6.00
2023-03-24T20:34:29.828Z,5.45
2023-03-24T20:39:33.314Z,5.50
2023-03-24T20:44:36.024Z,5.20
2023-03-24T20:49:39.227Z,5.95
2023-03-24T20:54:41.863Z,5.68
2023-03-24T20:59:44.486Z,5.22
2023-03-24T21:04:47.151Z,4.65
2023-03-24T21:09:49.806Z,4.88
2023-03-24T21:14:52.505Z,4.88
2023-03-24T21:19:55.078Z,5.38
2023-03-24T21:24:59.389Z,4.75
2023-03-24T21:30:02.459Z,3.95
2023-03-24T21:35:07.413Z,4.82
2023-03-24T21:40:10.713Z,18.10
2023-03-24T21:45:17.181Z,4.60
2023-03-24T21:50:23.339Z,4.90
2023-03-24T21:55:27.111Z,5.45
2023-03-24T22:00:30.622Z,4.00
2023-03-24T22:05:34.001Z,3.80
2023-03-24T22:10:37.069Z,3.88
2023-03-24T22:15:39.647Z,4.18
2023-03-24T22:20:42.374Z,3.80
2023-03-24T22:25:44.977Z,3.70
2023-03-24T22:30:47.612Z,3.50
2023-03-24T22:35:54.891Z,3.08
2023-03-24T22:41:02.899Z,3.53
2023-03-24T22:46:05.918Z,3.65
2023-03-24T22:51:09.367Z,3.55
2023-03-24T22:56:12.313Z,3.60
2023-03-24T23:01:15.178Z,3.97
2023-03-24T23:06:17.801Z,3.22
2023-03-24T23:11:20.500Z,3.00
2023-03-24T23:16:23.144Z,3.20
2023-03-24T23:21:27.297Z,3.20
2023-03-24T23:26:30.325Z,3.20
2023-03-24T23:31:33.028Z,3.10
2023-03-24T23:36:35.758Z,3.00
2023-03-24T23:41:38.298Z,3.25
2023-03-24T23:46:41.057Z,3.70
2023-03-24T23:51:43.683Z,3.70
2023-03-24T23:56:47.125Z,3.65
